Dugger, IN

10:47 PM EDT on August 22, 2014 (GMT -0400)
KINSANDB2 | Change Station
CLOSE
Current Station
Personal Weather Station
Location: Sandborn, IN
Elevation: 479 ft
Nearby Weather Stations

Elev 479 ft 38.90 °N, 87.18 °W | Updated 1 minute ago

Light Drizzle
Light Drizzle
80.1 °F
Feels Like 87 °F
N
0.0
Wind Variable Wind from SW
Gusts 0.0 mph

Today
High -- | Low -- °F
--% Chance of Precip.
Yesterday
High -- | Low -- °F
Precip. -- in
7:08 AM 8:34 PM
Waning Crescent, 5% visible
Pressure 29.99 in
Visibility 5.0 miles
Clouds Mostly Cloudy 3200 ft
Mostly Cloudy 7000 ft
Overcast 9000 ft
Heat Index 87 °F
Dew Point 79 °F
Humidity 95%
Rainfall 0.00 in
Snow Depth Not available.
UV 0 out of 12
Pollen 10.40 out of 12
Air Quality Not available.
Flu Activity Not available.
METAR KRSV 230215Z AUTO 09006KT 5SM -DZ BKN032 BKN070 OVC090 27/26 A2999 RMK AO2 LTG DSNT N AND E T02700262

More Conditions Fewer Conditions

Pressure 29.99 in
Visibility 5.0 miles
Clouds Mostly Cloudy 3200 ft
Mostly Cloudy 7000 ft
Overcast 9000 ft
Heat Index 87 °F
Dew Point 79 °F
Humidity 95%
Rainfall 0.00 in
Snow Depth Not available.
UV 0 out of 12
Pollen 10.40 out of 12
Air Quality Not available.
Flu Activity Not available.
METAR KRSV 230215Z AUTO 09006KT 5SM -DZ BKN032 BKN070 OVC090 27/26 A2999 RMK AO2 LTG DSNT N AND E T02700262

More Conditions Fewer Conditions

10-Day Weather Forecast

Almanac

Astronomy

Aug. 22, 2014 Rise Set
Actual Time 7:08 AM EDT 8:34 PM EDT
Civil Twilight 6:40 AM EDT 9:02 PM EDT
Nautical Twilight 6:06 AM EDT 9:35 PM EDT
Astronomical Twilight 5:31 AM EDT 10:11 PM EDT
Moon 4:31 AM EDT (8/22) 6:42 PM EDT (8/22)
Length of Visible Light 14h 21m
Length of Day
13h 25m
Tomorrow will be 2m 20s shorter.
Waning Crescent, 5% of the Moon is Illuminated
Today
Waning Crescent
Aug 25
New
Sep 2
First Quarter
Sep 8
Full
Sep 15
Last Quarter

Today's Extremes

State Highs State Lows

Community

WunderPhotos

Upload Photos

1,746,348 photos uploaded!

WunderBlogs® & News

Nearby

Snow Depth

Station Depth Elevation
No new snow has been reported.

Earthquake Activity

City Distance Mag. Time & Date
No recent earthquake activity has been reported nearby.
Minimum magnitude displayed is 2.5.

Coastal Water Temperatures

Place Temperature
No Stations Reporting

Nearby Weather Stations